Time;durP1;ratioP1;P1;durP2;ratioP2;P2;SDS_P1;SDS_P2;PMS_P1;PMS_P2;Temp;Humidity;BMP_temperature;BMP_pressure;BME280_temperature;BME280_humidity;BME280_pressure;Samples;Min_cycle;Max_cycle;Signal;HPM_P1;HPM_P2
2022/03/28 00:00:57;;;;;;;36.40;7.57;;;5.70;99.90;;;;;;4823540;29;21523;-83
2022/03/28 00:03:23;;;;;;;40.17;8.10;;;5.80;99.90;;;;;;4809452;29;20081;-83
2022/03/28 00:05:48;;;;;;;73.73;10.17;;;5.70;99.90;;;;;;4839412;29;20125;-83
2022/03/28 00:08:14;;;;;;;61.63;11.70;;;5.70;99.90;;;;;;4821682;29;20138;-83
2022/03/28 00:10:40;;;;;;;50.70;11.20;;;5.80;99.90;;;;;;4819951;29;20064;-84
2022/03/28 00:13:06;;;;;;;103.70;15.33;;;5.70;99.90;;;;;;4806379;29;20053;-84
2022/03/28 00:15:31;;;;;;;42.70;10.10;;;5.70;99.90;;;;;;4806245;29;20129;-83
2022/03/28 00:17:57;;;;;;;78.73;12.97;;;5.80;99.90;;;;;;4821436;29;20050;-83
2022/03/28 00:20:24;;;;;;;59.73;12.70;;;5.80;99.90;;;;;;4806477;29;20078;-83
2022/03/28 00:22:50;;;;;;;72.90;12.57;;;5.80;99.90;;;;;;4822969;29;20034;-83
2022/03/28 00:25:16;;;;;;;74.07;13.87;;;5.90;99.90;;;;;;4806303;29;20133;-84
2022/03/28 00:27:42;;;;;;;103.73;17.23;;;5.90;99.90;;;;;;4806332;29;20149;-84
2022/03/28 00:30:09;;;;;;;142.90;20.67;;;5.90;99.90;;;;;;4791546;29;20043;-84
2022/03/28 00:32:35;;;;;;;135.43;20.27;;;5.90;99.90;;;;;;4802180;29;20138;-83
2022/03/28 00:35:01;;;;;;;123.77;19.47;;;5.90;99.90;;;;;;4788551;29;20073;-82
2022/03/28 00:37:28;;;;;;;90.43;15.90;;;6.00;99.90;;;;;;4794570;29;20065;-82
2022/03/28 00:39:53;;;;;;;185.97;24.57;;;6.00;99.90;;;;;;4809489;29;20050;-83
2022/03/28 00:42:19;;;;;;;136.00;22.50;;;5.90;99.90;;;;;;4811191;29;20456;-83
2022/03/28 00:44:45;;;;;;;91.20;18.47;;;5.90;99.90;;;;;;4810170;29;20053;-83
2022/03/28 00:47:10;;;;;;;70.80;16.40;;;5.90;99.90;;;;;;4810059;29;20046;-83
2022/03/28 00:49:36;;;;;;;84.50;18.43;;;5.90;99.90;;;;;;4809003;29;20106;-83
2022/03/28 00:52:03;;;;;;;105.80;18.13;;;5.90;99.90;;;;;;4808546;29;20050;-83
2022/03/28 00:54:29;;;;;;;89.30;17.97;;;5.90;99.90;;;;;;4794472;29;20121;-83
2022/03/28 00:56:56;;;;;;;84.97;17.40;;;5.90;99.90;;;;;;4825373;29;20138;-83
2022/03/28 00:59:22;;;;;;;153.70;24.13;;;5.90;99.90;;;;;;4809782;29;20050;-83
2022/03/28 01:01:47;;;;;;;120.20;19.57;;;5.90;99.90;;;;;;4793850;29;20086;-83
2022/03/28 01:04:14;;;;;;;135.23;21.73;;;5.90;99.90;;;;;;4806927;29;20042;-83
2022/03/28 01:06:40;;;;;;;92.57;19.17;;;5.80;99.90;;;;;;4807237;29;20042;-83
2022/03/28 01:09:06;;;;;;;100.13;18.80;;;5.90;99.90;;;;;;4789187;29;20574;-83
2022/03/28 01:11:34;;;;;;;97.73;18.33;;;5.90;99.90;;;;;;4796978;29;20129;-83
2022/03/28 01:14:00;;;;;;;124.17;18.33;;;5.90;99.90;;;;;;4820554;29;20106;-83
2022/03/28 01:19:18;;;;;;;174.00;23.80;;;5.90;99.90;;;;;;4827633;29;20050;-83
2022/03/28 01:21:44;;;;;;;111.33;18.97;;;5.90;99.90;;;;;;4813155;29;20050;-83
2022/03/28 01:24:11;;;;;;;145.97;21.40;;;5.90;99.90;;;;;;4785944;29;20372;-83
2022/03/28 01:26:37;;;;;;;133.53;18.87;;;5.90;99.90;;;;;;4808628;29;20111;-83
2022/03/28 01:29:03;;;;;;;164.07;23.63;;;5.90;99.90;;;;;;4808602;29;20562;-84
2022/03/28 01:31:29;;;;;;;183.37;23.50;;;5.90;99.90;;;;;;4808976;29;20063;-83
2022/03/28 01:33:55;;;;;;;194.00;25.63;;;5.90;99.90;;;;;;4791719;29;20534;-83
2022/03/28 01:36:24;;;;;;;120.20;18.80;;;5.90;99.90;;;;;;4778875;29;20053;-83
2022/03/28 01:38:50;;;;;;;129.03;20.20;;;5.90;99.90;;;;;;4808867;29;20471;-83
2022/03/28 01:41:16;;;;;;;214.23;27.57;;;5.90;99.90;;;;;;4793687;29;20129;-83
2022/03/28 01:43:42;;;;;;;123.00;21.90;;;5.90;99.90;;;;;;4808083;29;20539;-83
2022/03/28 01:46:07;;;;;;;122.90;21.00;;;5.90;99.90;;;;;;4778884;29;20083;-83
2022/03/28 01:48:33;;;;;;;183.63;27.77;;;5.90;99.90;;;;;;4793404;29;21711;-83
2022/03/28 01:50:59;;;;;;;163.60;26.80;;;5.90;99.90;;;;;;4784089;29;20042;-83
2022/03/28 01:53:25;;;;;;;98.03;20.27;;;5.90;99.90;;;;;;4775961;29;20107;-83
2022/03/28 01:55:50;;;;;;;100.77;20.23;;;5.90;99.90;;;;;;4794688;29;20057;-82
2022/03/28 01:58:16;;;;;;;112.03;22.43;;;5.90;99.90;;;;;;4808172;29;20046;-82
2022/03/28 02:00:42;;;;;;;86.00;18.67;;;5.90;99.90;;;;;;4807756;29;20065;-83
2022/03/28 02:03:08;;;;;;;95.53;21.13;;;5.90;99.90;;;;;;4795910;29;20038;-82
2022/03/28 02:05:33;;;;;;;95.33;22.87;;;5.90;99.90;;;;;;4793526;29;20138;-83
2022/03/28 02:07:59;;;;;;;78.40;19.13;;;5.90;99.90;;;;;;4794441;29;20049;-83
2022/03/28 02:10:26;;;;;;;111.23;21.03;;;5.90;99.90;;;;;;4811586;29;20451;-83
2022/03/28 02:12:52;;;;;;;165.67;25.50;;;5.90;99.90;;;;;;4825969;29;20042;-83
2022/03/28 02:15:19;;;;;;;170.13;25.23;;;5.90;99.90;;;;;;4826068;29;20479;-82
2022/03/28 02:17:45;;;;;;;113.70;22.13;;;5.90;99.90;;;;;;4842641;29;20045;-83
2022/03/28 02:20:12;;;;;;;78.07;20.63;;;5.90;99.90;;;;;;4826362;29;20186;-83
2022/03/28 02:22:40;;;;;;;117.97;26.00;;;5.90;99.90;;;;;;4798523;29;20045;-83
2022/03/28 02:25:07;;;;;;;79.87;20.60;;;5.90;99.90;;;;;;4824587;29;20702;-82
2022/03/28 02:27:34;;;;;;;76.50;19.90;;;6.00;99.90;;;;;;4793815;29;20137;-83
2022/03/28 02:29:59;;;;;;;56.57;18.20;;;6.00;99.90;;;;;;4826063;29;20144;-83
2022/03/28 02:32:25;;;;;;;90.07;23.30;;;6.00;99.90;;;;;;4825657;29;20537;-83
2022/03/28 02:34:51;;;;;;;105.20;23.97;;;6.00;99.90;;;;;;4826239;29;20045;-83
2022/03/28 02:37:17;;;;;;;140.30;26.90;;;5.90;99.90;;;;;;4823718;29;20037;-83
2022/03/28 02:39:43;;;;;;;120.10;23.17;;;6.10;99.90;;;;;;4825859;29;20526;-83
2022/03/28 02:42:09;;;;;;;59.17;19.33;;;6.00;99.90;;;;;;4813907;29;20488;-83
2022/03/28 02:44:35;;;;;;;182.93;29.93;;;6.00;99.90;;;;;;4809866;29;20486;-83
2022/03/28 02:47:01;;;;;;;141.30;28.63;;;6.00;99.90;;;;;;4825771;29;20129;-83
2022/03/28 02:49:27;;;;;;;225.10;33.87;;;6.00;99.90;;;;;;4816700;29;20106;-83
2022/03/28 02:51:52;;;;;;;82.80;22.27;;;5.90;99.90;;;;;;4811624;29;20056;-83
2022/03/28 02:54:18;;;;;;;183.97;32.30;;;5.90;99.90;;;;;;4822888;29;20080;-83
2022/03/28 02:56:44;;;;;;;63.07;23.57;;;6.00;99.90;;;;;;4811235;29;20387;-83
2022/03/28 02:59:12;;;;;;;87.37;23.63;;;6.00;99.90;;;;;;4823581;29;20125;-82
2022/03/28 03:01:38;;;;;;;80.50;24.77;;;6.00;99.90;;;;;;4810739;29;20128;-82
2022/03/28 03:04:04;;;;;;;66.37;22.83;;;6.00;99.90;;;;;;4825111;29;20399;-83
2022/03/28 03:06:30;;;;;;;95.87;25.27;;;6.00;99.90;;;;;;4809969;29;20045;-82
2022/03/28 03:08:56;;;;;;;125.43;30.40;;;6.00;99.90;;;;;;4800369;29;20058;-82
2022/03/28 03:11:22;;;;;;;75.87;23.37;;;6.00;99.90;;;;;;4805482;29;20046;-83
2022/03/28 03:13:49;;;;;;;72.07;24.03;;;5.90;99.90;;;;;;4793029;29;20075;-82
2022/03/28 03:16:16;;;;;;;148.43;34.63;;;6.00;99.90;;;;;;4804246;29;20143;-83
2022/03/28 03:18:41;;;;;;;80.10;26.27;;;6.00;99.90;;;;;;4804984;29;20056;-82
2022/03/28 03:21:07;;;;;;;117.50;31.17;;;6.00;99.90;;;;;;4799816;29;20470;-83
2022/03/28 03:23:33;;;;;;;80.50;26.80;;;6.00;99.90;;;;;;4794042;29;20046;-83
2022/03/28 03:25:59;;;;;;;84.03;27.73;;;6.00;99.90;;;;;;4804269;29;20070;-83
2022/03/28 03:28:25;;;;;;;110.80;29.33;;;6.00;99.90;;;;;;4803071;29;20038;-83
2022/03/28 03:30:51;;;;;;;57.37;21.70;;;6.00;99.90;;;;;;4806858;29;20073;-83
2022/03/28 03:33:17;;;;;;;68.40;25.53;;;5.90;99.90;;;;;;4821500;29;20047;-83
2022/03/28 03:35:43;;;;;;;61.70;23.47;;;5.90;99.90;;;;;;4792155;29;20044;-83
2022/03/28 03:38:09;;;;;;;68.90;24.70;;;5.90;99.90;;;;;;4805918;29;20053;-83
2022/03/28 03:40:35;;;;;;;62.37;22.57;;;6.00;99.90;;;;;;4791493;29;20054;-83
2022/03/28 03:43:01;;;;;;;66.70;23.33;;;5.90;99.90;;;;;;4806296;29;20062;-82
2022/03/28 03:45:27;;;;;;;56.83;21.70;;;5.90;99.90;;;;;;4796058;29;20038;-83
2022/03/28 03:47:53;;;;;;;60.10;22.20;;;5.80;99.90;;;;;;4806338;29;20038;-84
2022/03/28 03:50:18;;;;;;;55.03;21.90;;;5.80;99.90;;;;;;4791390;29;20042;-83
2022/03/28 03:52:44;;;;;;;52.03;20.87;;;5.80;99.90;;;;;;4810843;29;20052;-82
2022/03/28 03:55:10;;;;;;;51.37;19.90;;;5.80;99.90;;;;;;4807028;29;20065;-82
2022/03/28 03:57:36;;;;;;;54.67;20.80;;;5.70;99.90;;;;;;4786715;29;20054;-83
2022/03/28 04:00:04;;;;;;;51.97;21.23;;;5.70;99.90;;;;;;4806154;29;20069;-82
2022/03/28 04:02:30;;;;;;;59.47;21.93;;;5.70;99.90;;;;;;4791794;29;20043;-82
2022/03/28 04:04:56;;;;;;;52.47;22.43;;;5.70;99.90;;;;;;4807469;29;20050;-83
2022/03/28 04:07:21;;;;;;;51.10;20.60;;;5.70;99.90;;;;;;4801079;29;20361;-83
2022/03/28 04:09:47;;;;;;;52.10;21.47;;;5.60;99.90;;;;;;4824525;29;20066;-83
2022/03/28 04:12:14;;;;;;;50.63;21.10;;;5.60;99.90;;;;;;4821407;29;20049;-83
2022/03/28 04:14:39;;;;;;;56.23;22.50;;;5.70;99.90;;;;;;4846784;29;20053;-83
2022/03/28 04:17:05;;;;;;;48.00;21.50;;;5.60;99.90;;;;;;4813053;29;20065;-83
2022/03/28 04:19:31;;;;;;;44.97;20.13;;;5.60;99.90;;;;;;4829260;29;20052;-83
2022/03/28 04:21:58;;;;;;;48.47;18.60;;;5.60;99.90;;;;;;4830250;29;20050;-83
2022/03/28 04:24:23;;;;;;;42.93;20.77;;;5.60;99.90;;;;;;4830484;29;20447;-83
2022/03/28 04:26:49;;;;;;;47.20;20.73;;;5.60;99.90;;;;;;4830404;29;20042;-83
2022/03/28 04:29:15;;;;;;;41.87;19.17;;;5.60;99.90;;;;;;4811093;29;20378;-83
2022/03/28 04:31:41;;;;;;;46.53;20.50;;;5.60;99.90;;;;;;4829145;29;20886;-82
2022/03/28 04:34:07;;;;;;;51.67;21.27;;;5.50;99.90;;;;;;4799518;29;20049;-82
2022/03/28 04:36:34;;;;;;;43.97;20.03;;;5.50;99.90;;;;;;4831553;29;20054;-83
2022/03/28 04:39:00;;;;;;;45.73;21.20;;;5.60;99.90;;;;;;4830275;29;20046;-83
2022/03/28 04:41:26;;;;;;;51.37;20.53;;;5.50;99.90;;;;;;4814541;29;20056;-83
2022/03/28 04:43:51;;;;;;;44.87;21.00;;;5.50;99.90;;;;;;4829866;29;20037;-83
2022/03/28 04:46:17;;;;;;;50.50;21.83;;;5.50;99.90;;;;;;4829698;29;20034;-83
2022/03/28 04:48:43;;;;;;;57.27;23.07;;;5.50;99.90;;;;;;4829536;29;20064;-83
2022/03/28 04:51:09;;;;;;;53.57;23.00;;;5.50;99.90;;;;;;4830207;29;20136;-82
2022/03/28 04:53:35;;;;;;;52.10;22.47;;;5.50;99.90;;;;;;4830141;29;20053;-82
2022/03/28 04:56:01;;;;;;;56.63;22.83;;;5.60;99.90;;;;;;4814934;29;20656;-83
2022/03/28 04:58:27;;;;;;;54.97;23.40;;;5.60;99.90;;;;;;4839574;29;20045;-82
2022/03/28 05:00:52;;;;;;;50.40;22.67;;;5.60;99.90;;;;;;4827093;29;20133;-83
2022/03/28 05:03:19;;;;;;;54.07;22.50;;;5.60;99.90;;;;;;4799257;29;20471;-82
2022/03/28 05:05:44;;;;;;;49.90;21.27;;;5.60;99.90;;;;;;4832075;29;20041;-82
2022/03/28 05:08:11;;;;;;;46.10;19.97;;;5.60;99.90;;;;;;4830455;29;20041;-82
2022/03/28 05:10:37;;;;;;;53.80;20.80;;;5.70;99.90;;;;;;4782534;29;20050;-82
2022/03/28 05:13:02;;;;;;;47.50;21.00;;;5.60;99.90;;;;;;4812706;29;20057;-83
2022/03/28 05:15:28;;;;;;;45.20;19.07;;;5.60;99.90;;;;;;4812101;29;20538;-83
2022/03/28 05:17:54;;;;;;;51.87;21.67;;;5.60;99.90;;;;;;4764532;29;20061;-84
2022/03/28 05:20:20;;;;;;;52.90;21.20;;;5.60;99.90;;;;;;4793014;29;20066;-83
2022/03/28 05:22:46;;;;;;;61.00;21.00;;;5.60;99.90;;;;;;4808252;29;20057;-83
2022/03/28 05:25:11;;;;;;;68.87;21.47;;;5.50;99.90;;;;;;4778484;29;20142;-83
2022/03/28 05:27:45;;;;;;;61.03;17.90;;;5.50;99.90;;;;;;4802940;29;20043;-82
2022/03/28 05:30:12;;;;;;;50.13;17.97;;;5.60;99.90;;;;;;4809056;29;20046;-82
2022/03/28 05:32:38;;;;;;;57.27;18.97;;;5.50;99.90;;;;;;4804344;29;20419;-83
2022/03/28 05:35:05;;;;;;;47.60;18.87;;;5.50;99.90;;;;;;4824559;29;20050;-83
2022/03/28 05:37:31;;;;;;;59.70;18.90;;;5.50;99.90;;;;;;4782276;29;20046;-83
2022/03/28 05:39:57;;;;;;;59.07;19.20;;;5.50;99.90;;;;;;4793772;29;20042;-83
2022/03/28 05:42:23;;;;;;;47.67;17.37;;;5.50;99.90;;;;;;4823996;29;20042;-83
2022/03/28 05:44:49;;;;;;;44.13;16.17;;;5.50;99.90;;;;;;4775987;29;20126;-84
2022/03/28 05:47:15;;;;;;;44.87;15.53;;;5.50;99.90;;;;;;4824822;29;20122;-82
2022/03/28 05:49:40;;;;;;;46.20;15.17;;;5.40;99.90;;;;;;4805346;29;20482;-83
2022/03/28 05:52:07;;;;;;;48.63;16.23;;;5.40;99.90;;;;;;4793762;29;20046;-83
2022/03/28 05:54:32;;;;;;;50.57;17.87;;;5.40;99.90;;;;;;4823916;29;20107;-82
2022/03/28 05:56:59;;;;;;;51.47;17.50;;;5.30;99.90;;;;;;4809738;29;20046;-83
2022/03/28 05:59:25;;;;;;;65.80;20.20;;;5.30;99.90;;;;;;4810331;29;20391;-83
2022/03/28 06:01:51;;;;;;;44.37;15.73;;;5.30;99.90;;;;;;4773502;29;20050;-82
2022/03/28 06:04:18;;;;;;;44.43;15.80;;;5.30;99.90;;;;;;4809301;29;20046;-83
2022/03/28 06:06:44;;;;;;;50.53;16.33;;;5.30;99.90;;;;;;4792865;29;20061;-83
2022/03/28 06:09:10;;;;;;;44.23;14.27;;;5.40;99.90;;;;;;4792912;29;20050;-83
2022/03/28 06:11:36;;;;;;;35.37;13.97;;;5.30;99.90;;;;;;4801702;29;20065;-83
2022/03/28 06:14:02;;;;;;;34.87;14.07;;;5.30;99.90;;;;;;4809476;29;20046;-83
2022/03/28 06:16:28;;;;;;;39.37;13.97;;;5.30;99.90;;;;;;4794016;29;20103;-83
2022/03/28 06:18:54;;;;;;;50.07;14.50;;;5.30;99.90;;;;;;4808614;29;20089;-83
2022/03/28 06:21:20;;;;;;;46.03;14.07;;;5.30;99.90;;;;;;4808418;29;20069;-83
2022/03/28 06:23:45;;;;;;;51.73;14.43;;;5.20;99.90;;;;;;4808416;29;20054;-83
2022/03/28 06:26:11;;;;;;;70.20;18.17;;;5.40;99.90;;;;;;4808195;29;20042;-83
2022/03/28 06:28:39;;;;;;;44.87;14.90;;;5.30;99.90;;;;;;4818539;29;20042;-83
2022/03/28 06:31:08;;;;;;;44.37;13.47;;;5.20;99.90;;;;;;4792915;29;20063;-83
2022/03/28 06:33:35;;;;;;;41.03;13.23;;;5.30;99.90;;;;;;4792928;29;20046;-83
2022/03/28 06:36:01;;;;;;;24.17;9.43;;;5.20;99.90;;;;;;4808318;29;20058;-83
2022/03/28 06:38:27;;;;;;;28.77;9.50;;;5.20;99.90;;;;;;4808303;29;20122;-82
2022/03/28 06:40:53;;;;;;;26.83;9.53;;;5.20;99.90;;;;;;4808381;29;20086;-83
2022/03/28 06:43:19;;;;;;;25.17;8.80;;;5.20;99.90;;;;;;4797660;29;20050;-82
2022/03/28 06:45:45;;;;;;;23.17;7.67;;;5.20;99.90;;;;;;4793109;29;20055;-83
2022/03/28 06:48:11;;;;;;;15.43;5.37;;;5.20;99.90;;;;;;4808634;29;20391;-82
2022/03/28 06:50:37;;;;;;;10.80;4.40;;;5.10;99.90;;;;;;4824358;29;20042;-82
2022/03/28 06:53:03;;;;;;;8.43;3.80;;;5.10;99.90;;;;;;4796141;29;20046;-83
2022/03/28 06:55:29;;;;;;;10.37;4.80;;;5.10;99.90;;;;;;4774315;29;20129;-83
2022/03/28 06:57:55;;;;;;;10.17;4.07;;;5.00;99.90;;;;;;4773819;29;20134;-83
2022/03/28 07:00:21;;;;;;;8.30;3.50;;;5.10;99.90;;;;;;4797817;29;20133;-82
2022/03/28 07:02:47;;;;;;;9.80;3.63;;;5.10;99.90;;;;;;4793665;29;20038;-83
2022/03/28 07:05:13;;;;;;;12.63;4.20;;;5.10;99.90;;;;;;4807618;29;20046;-83
2022/03/28 07:07:46;;;;;;;9.33;3.93;;;5.10;99.90;;;;;;4792392;29;20046;-83
2022/03/28 07:10:14;;;;;;;8.20;3.67;;;5.10;99.90;;;;;;4822231;29;20054;-84
2022/03/28 07:12:40;;;;;;;9.53;4.73;;;5.10;99.90;;;;;;4810282;29;20066;-83
2022/03/28 07:15:07;;;;;;;11.00;4.20;;;5.10;99.90;;;;;;4840734;29;20089;-83
2022/03/28 07:17:54;;;;;;;14.00;5.33;;;5.10;99.90;;;;;;4828689;29;20061;-83
2022/03/28 07:20:25;;;;;;;14.37;6.07;;;5.20;99.90;;;;;;4810719;29;20462;-84
2022/03/28 07:22:53;;;;;;;13.73;6.38;;;5.20;99.90;;;;;;4825587;29;20969;-83
2022/03/28 07:25:20;;;;;;;12.87;5.40;;;5.20;99.90;;;;;;4810096;29;20038;-83
2022/03/28 07:27:46;;;;;;;13.33;5.60;;;5.30;99.90;;;;;;4825431;29;20514;-83
2022/03/28 07:30:14;;;;;;;12.63;6.37;;;5.30;99.90;;;;;;4825721;29;20142;-83
2022/03/28 07:32:41;;;;;;;11.50;5.40;;;5.40;99.90;;;;;;4841891;29;20779;-83
2022/03/28 07:35:08;;;;;;;15.03;6.73;;;5.40;99.90;;;;;;4825386;29;20045;-83
2022/03/28 07:37:34;;;;;;;12.33;6.10;;;5.50;99.90;;;;;;4809924;29;20418;-83
2022/03/28 07:40:01;;;;;;;13.83;6.60;;;5.50;99.90;;;;;;4825579;29;20057;-83
2022/03/28 07:42:27;;;;;;;12.17;6.33;;;5.60;99.90;;;;;;4825150;29;20045;-83
2022/03/28 07:44:56;;;;;;;12.70;5.90;;;5.60;99.90;;;;;;4825666;29;20049;-83
2022/03/28 07:47:25;;;;;;;14.37;6.80;;;5.70;99.90;;;;;;4819903;29;20081;-83
2022/03/28 07:49:54;;;;;;;15.47;6.73;;;5.60;99.90;;;;;;4800523;29;20075;-83
2022/03/28 07:52:20;;;;;;;14.23;6.53;;;5.60;99.90;;;;;;4825240;29;20056;-83
2022/03/28 07:54:48;;;;;;;15.40;6.60;;;5.60;99.90;;;;;;4825231;29;20501;-83
2022/03/28 07:57:15;;;;;;;13.13;6.60;;;5.50;99.90;;;;;;4825355;29;20053;-84
2022/03/28 07:59:46;;;;;;;14.93;6.50;;;5.50;99.90;;;;;;4825281;29;20101;-83
2022/03/28 08:02:12;;;;;;;11.60;6.23;;;5.50;99.90;;;;;;4824661;29;20068;-83
2022/03/28 08:04:38;;;;;;;12.83;6.37;;;5.50;99.90;;;;;;4819542;29;20038;-83
2022/03/28 08:07:08;;;;;;;17.03;7.37;;;5.70;99.90;;;;;;4809426;29;20046;-83
2022/03/28 08:09:43;;;;;;;15.23;7.20;;;5.50;99.90;;;;;;4824489;29;20065;-83
2022/03/28 08:12:10;;;;;;;17.73;7.67;;;5.50;99.90;;;;;;4824765;29;20045;-84
2022/03/28 08:14:37;;;;;;;15.97;7.23;;;5.60;99.90;;;;;;4824529;29;20053;-84
2022/03/28 08:17:04;;;;;;;18.80;7.33;;;5.70;99.90;;;;;;4809914;29;20058;-84
2022/03/28 08:19:30;;;;;;;16.07;7.57;;;5.70;99.90;;;;;;4803129;29;20134;-84
2022/03/28 08:21:56;;;;;;;20.47;7.30;;;5.80;99.90;;;;;;4791785;29;20133;-83
2022/03/28 08:24:22;;;;;;;17.07;8.53;;;5.80;99.90;;;;;;4799305;29;20065;-84
2022/03/28 08:26:49;;;;;;;16.87;7.80;;;5.80;99.90;;;;;;4823909;29;20431;-84
2022/03/28 08:29:15;;;;;;;18.20;8.20;;;5.80;99.90;;;;;;4824291;29;20092;-84
2022/03/28 08:31:41;;;;;;;17.27;7.37;;;5.90;99.90;;;;;;4824519;29;20053;-84
2022/03/28 08:34:07;;;;;;;14.97;7.57;;;6.00;99.90;;;;;;4824405;29;20076;-84
2022/03/28 08:36:34;;;;;;;17.30;7.63;;;6.10;99.90;;;;;;4824582;29;20122;-84
2022/03/28 08:39:00;;;;;;;15.90;7.93;;;6.10;99.90;;;;;;4821317;29;20054;-84
2022/03/28 08:41:27;;;;;;;15.00;7.60;;;6.20;99.90;;;;;;4809170;29;20418;-83
2022/03/28 08:43:53;;;;;;;16.40;8.60;;;6.30;99.90;;;;;;4824181;29;20058;-84
2022/03/28 08:46:19;;;;;;;13.43;7.00;;;6.20;99.90;;;;;;4821259;29;20098;-84
2022/03/28 08:48:45;;;;;;;13.70;7.50;;;6.30;99.90;;;;;;4822256;29;20125;-84
2022/03/28 08:51:13;;;;;;;14.80;7.27;;;6.30;99.90;;;;;;4821529;29;20803;-84
2022/03/28 08:53:39;;;;;;;14.27;7.57;;;6.20;99.90;;;;;;4841496;29;20117;-83
2022/03/28 08:56:08;;;;;;;13.23;7.67;;;6.20;99.90;;;;;;4827819;29;20049;-83
2022/03/28 08:58:34;;;;;;;14.43;7.23;;;6.30;99.90;;;;;;4828068;29;20061;-83
2022/03/28 09:01:02;;;;;;;14.83;6.87;;;6.20;99.90;;;;;;4810629;29;20057;-84
2022/03/28 09:03:47;;;;;;;13.63;7.10;;;6.30;99.90;;;;;;4814957;29;20394;-84
2022/03/28 09:06:39;;;;;;;12.83;7.63;;;6.30;99.90;;;;;;4814120;29;20110;-84
2022/03/28 09:09:08;;;;;;;;;;;6.40;99.90;;;;;;4815737;29;20058;-83
2022/03/28 09:11:34;;;;;;;14.40;7.40;;;6.40;99.90;;;;;;4827996;29;20007;-83
2022/03/28 09:14:00;;;;;;;11.53;6.70;;;6.50;99.90;;;;;;4826346;29;20147;-84
2022/03/28 09:16:29;;;;;;;10.30;6.13;;;6.50;99.90;;;;;;4827891;29;20077;-83
2022/03/28 09:18:56;;;;;;;13.33;6.87;;;6.60;99.90;;;;;;4820756;29;20050;-84
2022/03/28 09:21:25;;;;;;;12.73;6.80;;;6.60;99.90;;;;;;4809283;29;20054;-84
2022/03/28 09:23:52;;;;;;;12.63;7.57;;;6.70;99.90;;;;;;4809594;29;20051;-84
2022/03/28 09:26:24;;;;;;;14.77;7.50;;;6.90;99.90;;;;;;4826196;29;20042;-85
2022/03/28 09:28:52;;;;;;;;;;;6.90;99.90;;;;;;4800846;29;20081;-85
2022/03/28 09:31:26;;;;;;;15.60;7.53;;;6.90;99.90;;;;;;4827080;29;19921;-84
2022/03/28 09:34:08;;;;;;;13.17;6.83;;;6.90;99.90;;;;;;4824150;29;20054;-84
2022/03/28 09:36:50;;;;;;;17.67;9.17;;;6.90;99.90;;;;;;4827219;29;20060;-84
2022/03/28 09:39:17;;;;;;;17.10;9.30;;;6.90;99.90;;;;;;4826981;29;20354;-83
2022/03/28 09:41:45;;;;;;;17.53;8.67;;;6.90;99.90;;;;;;4827226;29;20049;-86
2022/03/28 09:44:11;;;;;;;17.40;9.53;;;6.90;99.90;;;;;;4827114;29;20048;-85
2022/03/28 09:46:37;;;;;;;16.80;9.27;;;6.70;99.90;;;;;;4827237;29;20109;-84
2022/03/28 09:49:04;;;;;;;18.03;8.73;;;6.70;99.90;;;;;;4827093;29;20045;-83
2022/03/28 09:51:32;;;;;;;18.97;9.30;;;6.80;99.90;;;;;;4826324;29;20074;-84
2022/03/28 09:53:59;;;;;;;15.57;8.57;;;6.90;99.90;;;;;;4827172;29;20089;-85
2022/03/28 09:56:26;;;;;;;20.57;9.87;;;7.00;99.90;;;;;;4826812;29;20050;-84
2022/03/28 09:58:59;;;;;;;17.93;9.27;;;7.00;99.90;;;;;;4812405;29;20085;-85
2022/03/28 10:01:39;;;;;;;16.10;8.97;;;7.00;99.90;;;;;;4814389;29;20094;-84
2022/03/28 10:04:09;;;;;;;19.97;9.60;;;7.10;99.90;;;;;;4811455;29;20045;-84
2022/03/28 10:06:37;;;;;;;17.73;9.60;;;7.10;99.90;;;;;;4812078;29;20075;-84
2022/03/28 10:09:04;;;;;;;19.53;9.80;;;7.10;99.90;;;;;;4811582;29;20118;-85
2022/03/28 10:11:31;;;;;;;18.30;9.53;;;7.10;99.90;;;;;;4797497;29;20442;-86
2022/03/28 10:13:57;;;;;;;21.93;10.83;;;7.10;99.90;;;;;;4795488;29;20415;-86
2022/03/28 10:16:24;;;;;;;20.10;10.90;;;7.20;99.90;;;;;;4793694;29;20054;-85
2022/03/28 10:18:50;;;;;;;21.20;10.00;;;7.40;99.90;;;;;;4807322;29;20077;-84
2022/03/28 10:21:40;;;;;;;18.03;9.50;;;7.40;99.90;;;;;;4793912;29;20054;-84
2022/03/28 10:24:24;;;;;;;19.33;10.37;;;7.40;99.90;;;;;;4797346;29;20046;-86
2022/03/28 10:26:56;;;;;;;21.97;10.63;;;7.40;99.90;;;;;;4781305;29;20050;-85
2022/03/28 10:29:23;;;;;;;20.90;9.87;;;7.40;99.90;;;;;;4792610;29;20042;-86
2022/03/28 10:31:59;;;;;;;22.77;10.43;;;7.60;99.90;;;;;;4791587;29;20487;-84
2022/03/28 10:34:53;;;;;;;22.37;10.40;;;7.60;99.90;;;;;;4790479;29;20072;-85
2022/03/28 10:37:47;;;;;;;19.47;10.57;;;7.70;99.90;;;;;;4805757;29;20629;-86
2022/03/28 10:40:32;;;;;;;18.30;9.97;;;7.80;99.90;;;;;;4803389;29;20081;-85
2022/03/28 10:43:09;;;;;;;20.50;10.37;;;7.70;99.90;;;;;;4775565;29;20115;-86
2022/03/28 10:45:55;;;;;;;19.13;10.10;;;7.70;99.90;;;;;;4805461;29;20038;-85
2022/03/28 10:48:35;;;;;;;20.60;10.70;;;7.80;99.90;;;;;;4789410;29;20057;-86
2022/03/28 10:51:21;;;;;;;21.47;10.87;;;8.00;99.90;;;;;;4820900;29;20090;-85
2022/03/28 10:53:53;;;;;;;18.93;10.43;;;8.10;99.90;;;;;;4803954;29;20062;-86
2022/03/28 10:56:23;;;;;;;18.73;10.13;;;8.20;99.90;;;;;;4817388;29;20073;-87
2022/03/28 10:58:53;;;;;;;18.60;10.10;;;8.30;99.90;;;;;;4789885;29;20046;-86
2022/03/28 11:08:59;;;;;;;21.00;10.93;;;8.50;99.90;;;;;;4694467;30;20064;-86
2022/03/28 11:23:09;;;;;;;18.20;10.60;;;9.10;99.90;;;;;;4674956;30;20105;-86
2022/03/28 11:26:09;;;;;;;;;;;;;;;;;;;;;
2022/03/28 11:29:33;;;;;;;16.73;10.03;;;9.40;99.90;;;;;;4694306;30;20057;-86
2022/03/28 11:36:41;;;;;;;19.13;10.70;;;9.10;99.90;;;;;;4695269;30;20121;-86
2022/03/28 11:39:37;;;;;;;;;;;;;;;;;;;;;
2022/03/28 11:43:00;;;;;;;;;;;;;;;;;;;;;
2022/03/28 12:27:50;;;;;;;;;;;;;;;;;;;;;
2022/03/28 12:31:28;;;;;;;;;;;;;;;;;;;;;
2022/03/28 12:56:01;;;;;;;18.67;10.97;;;11.90;99.90;;;;;;4749930;29;20359;-82
2022/03/28 13:32:53;;;;;;;16.87;11.87;;;12.10;99.90;;;;;;4691574;30;20498;-84
2022/03/28 13:35:34;;;;;;;22.23;12.43;;;12.00;99.90;;;;;;4848937;24;20049;-79
2022/03/28 13:38:01;;;;;;;20.20;12.50;;;11.90;99.90;;;;;;4860716;29;20297;-79
2022/03/28 13:40:28;;;;;;;19.53;12.40;;;11.90;99.90;;;;;;4875159;29;20068;-79
2022/03/28 13:42:55;;;;;;;21.10;12.37;;;11.90;99.90;;;;;;4887293;29;20049;-79
2022/03/28 13:45:21;;;;;;;21.93;12.37;;;12.10;99.90;;;;;;4876031;29;20059;-77
2022/03/28 13:47:47;;;;;;;23.07;13.30;;;12.10;99.90;;;;;;4879470;29;20060;-79
2022/03/28 13:50:13;;;;;;;19.20;12.37;;;12.10;99.90;;;;;;4861544;29;20446;-79
2022/03/28 13:52:39;;;;;;;20.00;12.67;;;12.20;99.90;;;;;;4862924;29;20057;-79
2022/03/28 13:55:05;;;;;;;17.87;13.00;;;12.10;99.90;;;;;;4855226;29;20045;-80
2022/03/28 13:57:31;;;;;;;21.87;14.50;;;12.10;99.90;;;;;;4872921;29;20119;-79
2022/03/28 13:59:57;;;;;;;20.47;14.17;;;12.10;99.90;;;;;;4882730;29;20449;-79
2022/03/28 14:02:23;;;;;;;21.30;13.83;;;12.10;99.90;;;;;;4856916;29;20052;-79
2022/03/28 14:04:49;;;;;;;22.80;14.07;;;12.20;99.90;;;;;;4876794;29;20054;-79
2022/03/28 14:07:15;;;;;;;23.37;15.00;;;12.40;99.90;;;;;;4857810;29;20048;-79
2022/03/28 14:09:40;;;;;;;21.87;14.53;;;12.60;99.90;;;;;;4864724;29;20056;-79
2022/03/28 14:12:06;;;;;;;20.30;14.23;;;12.80;99.90;;;;;;4866424;29;20240;-78
2022/03/28 14:14:35;;;;;;;20.13;13.43;;;12.80;99.90;;;;;;4864314;29;20049;-78
2022/03/28 14:17:01;;;;;;;23.17;14.93;;;12.80;99.90;;;;;;4847283;29;20048;-79
2022/03/28 14:19:27;;;;;;;19.97;12.90;;;12.80;99.90;;;;;;4860337;29;20100;-79
2022/03/28 14:21:55;;;;;;;23.13;14.00;;;12.90;99.90;;;;;;4869750;29;20045;-79
2022/03/28 14:24:21;;;;;;;20.83;14.13;;;12.90;99.90;;;;;;4861755;29;20048;-79
2022/03/28 14:26:47;;;;;;;25.47;15.50;;;12.90;99.90;;;;;;4877909;29;20052;-79
2022/03/28 14:29:13;;;;;;;21.70;14.47;;;12.90;99.90;;;;;;4876401;29;20044;-79
2022/03/28 14:31:39;;;;;;;20.77;13.70;;;12.90;99.90;;;;;;4877446;29;20053;-79
2022/03/28 14:34:05;;;;;;;23.00;15.67;;;13.00;99.90;;;;;;4864550;29;20064;-79
2022/03/28 14:36:31;;;;;;;23.27;15.00;;;13.20;99.90;;;;;;4825101;29;20045;-79
2022/03/28 14:38:56;;;;;;;23.53;15.80;;;13.20;99.90;;;;;;4843659;29;20375;-80
2022/03/28 14:41:22;;;;;;;25.13;16.87;;;13.10;99.90;;;;;;4850232;29;20120;-79
2022/03/28 14:43:48;;;;;;;23.23;16.00;;;13.20;99.90;;;;;;4827442;29;20048;-79
2022/03/28 14:48:59;;;;;;;23.63;15.77;;;13.10;99.90;;;;;;4859320;29;20049;-79
2022/03/28 14:51:25;;;;;;;22.87;16.53;;;13.10;99.90;;;;;;4842341;29;20055;-79
2022/03/28 14:53:51;;;;;;;22.63;15.90;;;13.10;99.90;;;;;;4844041;29;20465;-80
2022/03/28 14:56:17;;;;;;;20.33;14.80;;;13.10;99.90;;;;;;4859096;29;20092;-79